createdAt,value
2018-08-18T00:00:21.187Z,71.58
2018-08-18T00:01:27.140Z,71.70
2018-08-18T00:02:33.012Z,71.58
2018-08-18T00:03:38.427Z,71.84
2018-08-18T00:04:44.465Z,71.77
2018-08-18T00:05:49.748Z,71.80
2018-08-18T00:06:55.469Z,71.88
2018-08-18T00:08:01.469Z,71.84
2018-08-18T00:09:07.904Z,72.25
2018-08-18T00:10:13.252Z,71.43
2018-08-18T00:11:18.988Z,71.47
2018-08-18T00:12:24.906Z,71.60
2018-08-18T00:13:30.469Z,71.43
2018-08-18T00:14:36.605Z,71.78
2018-08-18T00:15:42.609Z,71.59
2018-08-18T00:16:48.258Z,71.97
2018-08-18T00:17:54.250Z,72.19
2018-08-18T00:19:00.356Z,72.35
2018-08-18T00:20:05.772Z,72.49
2018-08-18T00:21:11.720Z,72.46
2018-08-18T00:22:17.857Z,72.77
2018-08-18T00:23:23.622Z,72.59
2018-08-18T00:24:29.863Z,72.83
2018-08-18T00:25:40.927Z,72.70
2018-08-18T00:26:47.014Z,72.73
2018-08-18T00:27:52.310Z,72.81
2018-08-18T00:28:57.999Z,72.56
2018-08-18T00:30:03.355Z,72.84
2018-08-18T00:31:09.079Z,72.78
2018-08-18T00:32:15.689Z,72.45
2018-08-18T00:33:21.362Z,72.24
2018-08-18T00:34:28.253Z,72.24
2018-08-18T00:35:33.536Z,72.65
2018-08-18T00:36:39.325Z,72.47
2018-08-18T00:37:45.408Z,72.48
2018-08-18T00:38:51.281Z,72.80
2018-08-18T00:39:56.857Z,73.02
2018-08-18T00:41:02.741Z,72.84
2018-08-18T00:42:08.883Z,72.95
2018-08-18T00:43:14.665Z,73.00
2018-08-18T00:44:20.888Z,73.21
2018-08-18T00:45:27.231Z,73.12
2018-08-18T00:46:33.283Z,72.80
2018-08-18T00:47:39.445Z,73.27
2018-08-18T00:48:45.079Z,73.38
2018-08-18T00:49:51.055Z,73.33
2018-08-18T00:50:56.592Z,73.36
2018-08-18T00:52:02.780Z,73.38
2018-08-18T00:53:08.527Z,73.55
2018-08-18T00:54:14.532Z,73.36
2018-08-18T00:55:21.551Z,73.27
2018-08-18T00:56:27.918Z,73.23
2018-08-18T00:57:33.281Z,73.46
2018-08-18T00:58:38.610Z,73.55
2018-08-18T00:59:43.659Z,73.48
2018-08-18T01:00:49.848Z,73.43
2018-08-18T01:01:56.340Z,73.53
2018-08-18T01:03:02.160Z,73.68
2018-08-18T01:04:07.829Z,73.83
2018-08-18T01:05:13.863Z,73.88
2018-08-18T01:06:19.064Z,73.65
2018-08-18T01:07:24.244Z,73.57
2018-08-18T01:08:30.263Z,73.82
2018-08-18T01:09:35.669Z,74.00
2018-08-18T01:10:41.641Z,74.13
2018-08-18T01:11:47.655Z,74.21
2018-08-18T01:12:54.030Z,74.34
2018-08-18T01:13:59.390Z,74.22
2018-08-18T01:15:04.906Z,74.64
2018-08-18T01:16:11.496Z,74.13
2018-08-18T01:17:17.207Z,74.26
2018-08-18T01:18:22.840Z,74.43
2018-08-18T01:19:29.277Z,74.47
2018-08-18T01:20:35.146Z,74.64
2018-08-18T01:21:40.943Z,74.74
2018-08-18T01:22:46.795Z,74.71
2018-08-18T01:23:52.684Z,74.60
2018-08-18T01:24:58.635Z,74.80
2018-08-18T01:26:04.426Z,74.83
2018-08-18T01:27:10.555Z,74.87
2018-08-18T01:28:16.468Z,74.97
2018-08-18T01:29:22.496Z,74.99
2018-08-18T01:30:28.278Z,75.07
2018-08-18T01:31:34.429Z,75.23
2018-08-18T01:32:40.519Z,75.27
2018-08-18T01:33:46.545Z,75.26
2018-08-18T01:34:52.189Z,75.22
2018-08-18T01:35:58.214Z,75.39
2018-08-18T01:37:03.773Z,75.53
2018-08-18T01:38:09.856Z,75.79
2018-08-18T01:39:15.275Z,75.59
2018-08-18T01:40:21.421Z,75.86
2018-08-18T01:41:26.725Z,76.01
2018-08-18T01:42:32.973Z,76.01
2018-08-18T01:43:39.269Z,76.19
2018-08-18T01:44:45.244Z,76.17
2018-08-18T01:45:51.239Z,76.25
2018-08-18T01:46:57.243Z,76.16
2018-08-18T01:48:03.204Z,76.30
2018-08-18T01:49:08.364Z,76.54
2018-08-18T01:50:14.220Z,76.70
2018-08-18T01:51:19.556Z,76.47
2018-08-18T01:52:25.572Z,76.56
2018-08-18T01:53:31.674Z,76.82
2018-08-18T01:54:38.025Z,76.88
2018-08-18T01:55:43.934Z,76.90
2018-08-18T01:56:50.005Z,77.08
2018-08-18T01:57:56.064Z,77.33
2018-08-18T01:59:02.230Z,77.39
2018-08-18T02:00:07.299Z,77.37
2018-08-18T02:01:13.409Z,77.37
2018-08-18T02:02:19.226Z,77.39
2018-08-18T02:03:25.273Z,77.30
2018-08-18T02:04:31.625Z,77.25
2018-08-18T02:05:37.996Z,77.47
2018-08-18T02:06:44.377Z,77.55
2018-08-18T02:07:50.428Z,77.52
2018-08-18T02:08:55.868Z,77.67
2018-08-18T02:10:01.533Z,77.31
2018-08-18T02:11:07.291Z,77.57
2018-08-18T02:12:13.323Z,78.04
2018-08-18T02:13:19.194Z,78.06
2018-08-18T02:14:25.256Z,78.08
2018-08-18T02:15:30.527Z,78.06
2018-08-18T02:16:36.615Z,78.28
2018-08-18T02:17:42.482Z,78.13
2018-08-18T02:18:48.492Z,77.91
2018-08-18T02:19:54.578Z,78.08
2018-08-18T02:21:00.746Z,78.19
2018-08-18T02:22:06.052Z,78.38
2018-08-18T02:23:11.248Z,78.40
2018-08-18T02:24:17.373Z,78.61
2018-08-18T02:25:23.639Z,78.69
2018-08-18T02:26:29.885Z,78.80
2018-08-18T02:27:34.974Z,78.84
2018-08-18T02:28:41.269Z,78.97
2018-08-18T02:29:46.596Z,78.81
2018-08-18T02:30:52.564Z,78.91
2018-08-18T02:31:58.651Z,78.89
2018-08-18T02:33:04.389Z,78.87
2018-08-18T02:34:10.479Z,78.91
2018-08-18T02:35:15.767Z,78.81
2018-08-18T02:36:21.404Z,79.11
2018-08-18T02:37:27.083Z,79.30
2018-08-18T02:38:33.017Z,79.35
2018-08-18T02:39:39.123Z,79.21
2018-08-18T02:40:45.261Z,79.69
2018-08-18T02:41:50.436Z,79.41
2018-08-18T02:42:56.600Z,79.62
2018-08-18T02:44:02.561Z,79.55
2018-08-18T02:45:08.001Z,79.71
2018-08-18T02:46:13.361Z,79.85
2018-08-18T02:47:19.438Z,79.84
2018-08-18T02:48:25.460Z,79.54
2018-08-18T02:49:31.554Z,79.45
2018-08-18T02:50:37.437Z,79.73
2018-08-18T02:51:43.845Z,79.65
2018-08-18T02:52:49.831Z,79.91
2018-08-18T02:53:55.930Z,79.62
2018-08-18T02:55:01.539Z,79.99
2018-08-18T02:56:07.444Z,79.92
2018-08-18T02:57:13.144Z,79.81
2018-08-18T02:58:19.183Z,79.54
2018-08-18T02:59:25.284Z,78.81
2018-08-18T03:00:31.420Z,79.15
2018-08-18T03:01:37.376Z,79.55
2018-08-18T03:02:43.442Z,79.88
2018-08-18T03:03:49.428Z,80.03
2018-08-18T03:04:55.778Z,79.92
2018-08-18T03:06:01.606Z,80.01
2018-08-18T03:07:07.388Z,79.84
2018-08-18T03:08:13.004Z,79.75
2018-08-18T03:09:19.781Z,79.07
2018-08-18T03:10:26.098Z,78.98
2018-08-18T03:11:32.172Z,78.56
2018-08-18T03:12:38.277Z,78.98
2018-08-18T03:13:44.708Z,79.24
2018-08-18T03:14:50.933Z,79.01
2018-08-18T03:15:57.014Z,78.67
2018-08-18T03:17:02.998Z,78.22
2018-08-18T03:18:08.320Z,78.27
2018-08-18T03:19:14.416Z,78.30
2018-08-18T03:20:20.559Z,78.80
2018-08-18T03:21:26.059Z,78.85
2018-08-18T03:22:31.789Z,78.67
2018-08-18T03:23:37.639Z,79.14
2018-08-18T03:24:43.649Z,78.93
2018-08-18T03:25:49.279Z,79.12
2018-08-18T03:26:55.331Z,79.24
2018-08-18T03:28:01.360Z,79.35
2018-08-18T03:29:07.841Z,79.05
2018-08-18T03:30:14.188Z,79.00
2018-08-18T03:31:20.242Z,78.61
2018-08-18T03:32:26.264Z,78.91
2018-08-18T03:33:32.014Z,78.85
2018-08-18T03:34:38.373Z,78.62
2018-08-18T03:35:44.813Z,78.21
2018-08-18T03:36:50.422Z,78.18
2018-08-18T03:37:56.161Z,78.51
2018-08-18T03:39:01.749Z,78.49
2018-08-18T03:40:07.228Z,78.69
2018-08-18T03:41:13.287Z,79.07
2018-08-18T03:42:19.397Z,78.69
2018-08-18T03:43:25.499Z,78.37
2018-08-18T03:44:31.021Z,78.43
2018-08-18T03:45:37.016Z,78.26
2018-08-18T03:46:42.730Z,78.29
2018-08-18T03:47:48.807Z,78.40
2018-08-18T03:48:54.219Z,78.75
2018-08-18T03:50:00.256Z,78.55
2018-08-18T03:51:06.240Z,78.68
2018-08-18T03:52:12.331Z,78.39
2018-08-18T03:53:18.453Z,77.82
2018-08-18T03:54:25.220Z,77.55
2018-08-18T03:55:30.652Z,77.13
2018-08-18T03:56:36.639Z,77.04
2018-08-18T03:57:42.326Z,76.74
2018-08-18T03:58:47.779Z,77.10
2018-08-18T03:59:53.829Z,77.41
2018-08-18T04:01:00.155Z,77.83
2018-08-18T04:02:06.364Z,78.18
2018-08-18T04:03:12.573Z,77.78
2018-08-18T04:04:18.884Z,77.88
2018-08-18T04:05:25.012Z,77.91
2018-08-18T04:06:30.987Z,78.09
2018-08-18T04:07:36.744Z,78.00
2018-08-18T04:08:42.447Z,77.92
2018-08-18T04:09:48.267Z,77.62
2018-08-18T04:10:54.567Z,77.40
2018-08-18T04:12:00.328Z,77.37
2018-08-18T04:13:06.336Z,78.00
2018-08-18T04:14:12.410Z,77.95
2018-08-18T04:15:18.080Z,77.62
2018-08-18T04:16:24.765Z,77.54
2018-08-18T04:17:30.507Z,76.99
2018-08-18T04:18:36.539Z,76.98
2018-08-18T04:19:42.656Z,77.10
2018-08-18T04:20:48.676Z,76.99
2018-08-18T04:21:54.759Z,76.99
2018-08-18T04:23:01.122Z,76.27
2018-08-18T04:24:06.908Z,75.81
2018-08-18T04:25:13.271Z,76.63
2018-08-18T04:26:19.523Z,77.35
2018-08-18T04:27:25.312Z,78.06
2018-08-18T04:28:31.340Z,78.10
2018-08-18T04:29:37.456Z,77.62
2018-08-18T04:30:43.779Z,77.01
2018-08-18T04:31:50.830Z,76.47
2018-08-18T04:32:58.074Z,76.83
2018-08-18T04:34:04.100Z,77.58
2018-08-18T04:35:09.454Z,77.65
2018-08-18T04:36:15.791Z,78.09
2018-08-18T04:37:21.789Z,77.33
2018-08-18T04:38:27.905Z,77.52
2018-08-18T04:39:33.311Z,77.73
2018-08-18T04:40:39.597Z,77.34
2018-08-18T04:41:45.744Z,77.89
2018-08-18T04:42:51.988Z,77.99
2018-08-18T04:43:58.169Z,78.10
2018-08-18T04:45:03.743Z,78.48
2018-08-18T04:46:09.768Z,78.27
2018-08-18T04:47:15.733Z,78.65
2018-08-18T04:48:21.153Z,78.60
2018-08-18T04:49:27.243Z,78.99
2018-08-18T04:50:33.565Z,78.06
2018-08-18T04:51:39.789Z,78.12
2018-08-18T04:52:45.515Z,78.57
2018-08-18T04:53:51.593Z,78.14
2018-08-18T04:54:57.880Z,77.38
2018-08-18T04:56:03.901Z,77.13
2018-08-18T04:57:10.143Z,76.98
2018-08-18T04:58:16.125Z,76.99
2018-08-18T04:59:21.615Z,77.18
2018-08-18T05:00:27.973Z,77.76
2018-08-18T05:01:34.048Z,77.85
2018-08-18T05:02:39.656Z,77.99
2018-08-18T05:03:44.678Z,77.90
2018-08-18T05:04:50.784Z,78.33
2018-08-18T05:05:56.827Z,78.75
2018-08-18T05:07:03.029Z,79.19
2018-08-18T05:08:09.118Z,79.00
2018-08-18T05:09:15.358Z,78.36
2018-08-18T05:10:22.047Z,78.93
2018-08-18T05:11:28.246Z,79.20
2018-08-18T05:12:34.579Z,79.58
2018-08-18T05:13:40.689Z,79.36
2018-08-18T05:14:46.777Z,78.99
2018-08-18T05:15:53.088Z,79.27
2018-08-18T05:16:59.160Z,79.07
2018-08-18T05:18:05.338Z,79.31
2018-08-18T05:19:11.427Z,79.04
2018-08-18T05:20:17.687Z,78.99
2018-08-18T05:21:23.776Z,79.09
2018-08-18T05:22:29.740Z,79.31
2018-08-18T05:23:46.310Z,79.57
2018-08-18T05:25:03.300Z,79.36
2018-08-18T05:26:23.145Z,79.53
2018-08-18T05:27:41.386Z,79.57
2018-08-18T05:29:03.228Z,80.17
2018-08-18T05:31:52.646Z,80.06
2018-08-18T05:33:11.521Z,79.91
2018-08-18T05:34:30.425Z,80.18
2018-08-18T05:35:40.256Z,79.87
2018-08-18T05:36:45.996Z,79.37
2018-08-18T05:37:52.099Z,78.75
2018-08-18T05:38:58.305Z,79.55
2018-08-18T05:40:06.857Z,79.24
2018-08-18T05:41:14.380Z,79.41
2018-08-18T05:42:20.311Z,79.36
2018-08-18T05:43:26.756Z,79.03
2018-08-18T05:44:35.711Z,79.09
2018-08-18T05:45:42.148Z,79.47
2018-08-18T05:46:48.236Z,79.93
2018-08-18T05:47:53.608Z,79.91
2018-08-18T05:48:59.526Z,79.87
2018-08-18T05:50:04.785Z,79.36
2018-08-18T05:51:10.780Z,79.86
2018-08-18T05:52:16.920Z,80.37
2018-08-18T05:53:22.923Z,80.20
2018-08-18T05:54:29.644Z,80.17
2018-08-18T05:55:35.654Z,79.82
2018-08-18T05:56:41.433Z,80.13
2018-08-18T05:57:47.405Z,79.58
2018-08-18T05:58:54.696Z,79.71
2018-08-18T06:00:00.662Z,79.59
2018-08-18T06:01:05.850Z,79.52
2018-08-18T06:02:11.184Z,79.60
2018-08-18T06:03:16.794Z,79.93
2018-08-18T06:04:24.464Z,79.49
2018-08-18T06:05:32.549Z,79.51
2018-08-18T06:06:41.014Z,79.07
2018-08-18T06:07:48.850Z,78.78
2018-08-18T06:08:56.140Z,78.75
2018-08-18T06:10:03.388Z,78.68
2018-08-18T06:11:10.938Z,78.86
2018-08-18T06:12:18.349Z,78.98
2018-08-18T06:13:25.506Z,79.63
2018-08-18T06:14:33.093Z,79.34
2018-08-18T06:15:40.556Z,79.80
2018-08-18T06:16:46.588Z,79.14
2018-08-18T06:17:53.955Z,79.63
2018-08-18T06:19:00.976Z,79.60
2018-08-18T06:20:08.950Z,79.73
2018-08-18T06:21:15.803Z,79.73
2018-08-18T06:22:24.657Z,80.09
2018-08-18T06:23:31.847Z,79.92
2018-08-18T06:24:38.399Z,79.57
2018-08-18T06:25:46.369Z,79.40
2018-08-18T06:26:54.294Z,79.88
2018-08-18T06:28:04.355Z,79.90
2018-08-18T06:29:11.646Z,79.52
2018-08-18T06:30:18.690Z,79.31
2018-08-18T06:31:24.826Z,79.17
2018-08-18T06:32:33.167Z,79.32
2018-08-18T06:33:40.165Z,78.00
2018-08-18T06:34:47.209Z,78.41
2018-08-18T06:35:54.368Z,78.36
2018-08-18T06:37:00.983Z,78.60
2018-08-18T06:38:08.089Z,77.77
2018-08-18T06:39:15.420Z,77.79
2018-08-18T06:40:22.620Z,77.56
2018-08-18T06:41:29.997Z,77.67
2018-08-18T06:42:35.933Z,78.20
2018-08-18T06:43:43.119Z,78.16
2018-08-18T06:44:50.214Z,78.31
2018-08-18T06:45:56.209Z,78.38
2018-08-18T06:47:03.358Z,78.44
2018-08-18T06:48:10.342Z,78.91
2018-08-18T06:49:18.274Z,78.98
2018-08-18T06:50:25.867Z,78.85
2018-08-18T06:51:32.925Z,78.84
2018-08-18T06:52:40.358Z,79.39
2018-08-18T06:53:49.908Z,78.80
2018-08-18T06:54:58.142Z,78.79
2018-08-18T06:56:05.629Z,78.63
2018-08-18T06:57:12.703Z,78.87
2018-08-18T06:58:20.252Z,78.93
2018-08-18T06:59:27.854Z,79.09
2018-08-18T07:00:34.992Z,79.33
2018-08-18T07:01:42.397Z,79.25
2018-08-18T07:02:50.050Z,78.64
2018-08-18T07:03:58.623Z,78.33
2018-08-18T07:05:06.276Z,78.50
2018-08-18T07:06:13.523Z,78.94
2018-08-18T07:07:21.794Z,78.64
2018-08-18T07:08:28.513Z,77.98
2018-08-18T07:09:35.980Z,78.63
2018-08-18T07:10:42.714Z,78.57
2018-08-18T07:11:49.513Z,78.77
2018-08-18T07:13:00.050Z,78.46
2018-08-18T07:14:07.442Z,78.17
2018-08-18T07:15:14.038Z,79.22
2018-08-18T07:16:21.561Z,78.42
2018-08-18T07:17:29.506Z,77.73
2018-08-18T07:18:37.136Z,78.37
2018-08-18T07:19:44.920Z,78.75
2018-08-18T07:20:51.731Z,78.92
2018-08-18T07:21:58.625Z,78.96
2018-08-18T07:23:04.472Z,78.42
2018-08-18T07:24:12.555Z,77.95
2018-08-18T07:25:20.265Z,78.30
2018-08-18T07:26:26.466Z,77.95
2018-08-18T07:27:34.722Z,77.80
2018-08-18T07:28:41.982Z,77.57
2018-08-18T07:29:47.411Z,77.22
2018-08-18T07:30:53.152Z,77.01
2018-08-18T07:31:59.343Z,76.55
2018-08-18T07:33:06.073Z,76.14
2018-08-18T07:34:12.145Z,76.03
2018-08-18T07:35:18.449Z,75.92
2018-08-18T07:36:24.552Z,75.85
2018-08-18T07:37:30.774Z,75.79
2018-08-18T07:38:36.952Z,76.13
2018-08-18T07:39:42.970Z,76.17
2018-08-18T07:40:48.628Z,76.17
2018-08-18T07:41:54.630Z,76.08
2018-08-18T07:43:00.006Z,76.77
2018-08-18T07:44:05.743Z,76.12
2018-08-18T07:45:11.498Z,76.30
2018-08-18T07:46:18.567Z,77.37
2018-08-18T07:47:24.622Z,76.33
2018-08-18T07:48:30.651Z,76.33
2018-08-18T07:49:37.136Z,75.99
2018-08-18T07:50:43.029Z,75.65
2018-08-18T07:51:49.994Z,75.41
2018-08-18T07:52:55.811Z,75.30
2018-08-18T07:54:02.327Z,74.25
2018-08-18T07:55:09.059Z,73.40
2018-08-18T07:56:15.779Z,72.82
2018-08-18T07:57:22.054Z,74.35
2018-08-18T07:58:28.315Z,73.83
2018-08-18T07:59:34.128Z,72.49
2018-08-18T08:00:41.063Z,71.91
2018-08-18T08:01:47.741Z,72.61
2018-08-18T08:02:55.292Z,73.09
2018-08-18T08:04:01.840Z,73.48
2018-08-18T08:05:07.234Z,73.41
2018-08-18T08:06:13.750Z,72.13
2018-08-18T08:07:20.742Z,72.83
2018-08-18T08:08:25.872Z,72.21
2018-08-18T08:09:32.292Z,71.33
2018-08-18T08:10:39.870Z,71.71
2018-08-18T08:11:47.251Z,71.30
2018-08-18T08:12:55.411Z,71.11
2018-08-18T08:14:02.768Z,70.12
2018-08-18T08:15:11.119Z,70.37
2018-08-18T08:16:20.759Z,71.46
2018-08-18T08:17:28.889Z,71.66
2018-08-18T08:18:36.429Z,71.28
2018-08-18T08:19:42.905Z,71.93
2018-08-18T08:20:49.523Z,70.91
2018-08-18T08:21:55.630Z,71.42
2018-08-18T08:23:01.248Z,71.16
2018-08-18T08:24:07.246Z,71.33
2018-08-18T08:25:12.930Z,70.47
2018-08-18T08:26:18.664Z,71.01
2018-08-18T08:27:25.998Z,70.78
2018-08-18T08:28:32.521Z,70.79
2018-08-18T08:29:39.585Z,70.64
2018-08-18T08:30:47.177Z,70.60
2018-08-18T08:31:53.043Z,70.85
2018-08-18T08:33:01.833Z,69.89
2018-08-18T08:34:09.442Z,69.38
2018-08-18T08:35:16.745Z,67.88
2018-08-18T08:36:23.776Z,69.33
2018-08-18T08:37:30.396Z,69.34
2018-08-18T08:38:35.887Z,68.40
2018-08-18T08:39:41.998Z,68.48
2018-08-18T08:40:48.087Z,69.27
2018-08-18T08:41:54.188Z,69.24
2018-08-18T08:43:00.277Z,69.50
2018-08-18T08:44:06.059Z,69.00
2018-08-18T08:45:13.698Z,67.18
2018-08-18T08:46:20.405Z,65.47
2018-08-18T08:47:27.758Z,66.52
2018-08-18T08:48:35.258Z,66.88
2018-08-18T08:49:44.148Z,67.99
2018-08-18T08:50:52.648Z,67.70
2018-08-18T08:51:59.686Z,68.31
2018-08-18T08:53:08.415Z,67.77
2018-08-18T08:54:16.282Z,67.54
2018-08-18T08:55:24.042Z,67.54
2018-08-18T08:56:31.666Z,68.45
2018-08-18T08:57:40.188Z,67.46
2018-08-18T08:58:47.538Z,68.17
2018-08-18T08:59:55.932Z,67.26
2018-08-18T09:02:15.221Z,67.04
2018-08-18T09:03:22.939Z,67.22
2018-08-18T09:04:30.651Z,66.39
2018-08-18T09:05:38.555Z,66.20
2018-08-18T09:06:46.496Z,67.28
2018-08-18T09:07:54.798Z,66.94
2018-08-18T09:09:02.546Z,67.28
2018-08-18T09:10:10.210Z,67.12
2018-08-18T09:11:17.929Z,67.68
2018-08-18T09:12:25.373Z,67.94
2018-08-18T09:13:33.201Z,67.61
2018-08-18T09:14:40.512Z,67.49
2018-08-18T09:15:52.764Z,67.71
2018-08-18T09:16:59.972Z,67.54
2018-08-18T09:18:07.242Z,67.39
2018-08-18T09:19:16.259Z,67.19
2018-08-18T09:20:23.650Z,67.21
2018-08-18T09:21:30.430Z,67.02
2018-08-18T09:22:37.932Z,66.50
2018-08-18T09:23:46.042Z,66.53
2018-08-18T09:24:53.682Z,66.61
2018-08-18T09:26:01.650Z,67.85
2018-08-18T09:27:09.603Z,67.20
2018-08-18T09:28:18.173Z,67.26
2018-08-18T09:29:25.313Z,67.05
2018-08-18T09:30:33.125Z,66.89
2018-08-18T09:31:42.025Z,67.13
2018-08-18T09:32:50.273Z,67.01
2018-08-18T09:35:05.208Z,67.60
2018-08-18T09:36:11.407Z,66.67
2018-08-18T09:37:17.733Z,66.78
2018-08-18T09:38:23.412Z,67.19
2018-08-18T09:39:29.244Z,66.21
2018-08-18T09:40:35.389Z,65.40
2018-08-18T09:41:41.466Z,65.84
2018-08-18T09:42:48.235Z,65.98
2018-08-18T09:43:53.953Z,66.09
2018-08-18T09:44:59.661Z,66.13
2018-08-18T09:46:05.325Z,66.27
2018-08-18T09:47:11.277Z,65.95
2018-08-18T09:48:17.036Z,66.02
2018-08-18T09:49:23.080Z,65.80
2018-08-18T09:50:29.155Z,64.69
2018-08-18T09:51:35.090Z,65.12
2018-08-18T09:52:41.206Z,65.27
2018-08-18T09:53:47.331Z,66.09
2018-08-18T09:54:53.646Z,66.03
2018-08-18T09:57:03.609Z,65.68
2018-08-18T09:58:09.698Z,65.71
2018-08-18T09:59:15.850Z,64.73
2018-08-18T10:00:21.581Z,65.32
2018-08-18T10:01:27.267Z,65.87
2018-08-18T10:02:33.616Z,65.44
2018-08-18T10:03:39.754Z,64.77
2018-08-18T10:04:45.860Z,64.64
2018-08-18T10:05:51.940Z,64.91
2018-08-18T10:06:57.381Z,64.56
2018-08-18T10:08:02.644Z,64.69
2018-08-18T10:09:08.277Z,64.64
2018-08-18T10:10:13.965Z,65.23
2018-08-18T10:11:21.577Z,64.79
2018-08-18T10:12:27.573Z,63.48
2018-08-18T10:13:33.558Z,63.52
2018-08-18T10:14:43.587Z,61.56
2018-08-18T10:15:50.000Z,61.08
2018-08-18T10:16:56.287Z,61.57
2018-08-18T10:18:01.958Z,61.96
2018-08-18T10:19:07.189Z,62.14
2018-08-18T10:20:18.248Z,61.44
2018-08-18T10:21:28.191Z,61.96
2018-08-18T10:22:34.220Z,62.79
2018-08-18T10:23:40.931Z,64.38
2018-08-18T10:24:48.852Z,63.15
2018-08-18T10:25:57.070Z,63.62
2018-08-18T10:27:04.524Z,63.25
2018-08-18T10:28:12.354Z,64.10
2018-08-18T10:29:20.816Z,64.20
2018-08-18T10:30:29.417Z,64.54
2018-08-18T10:31:37.218Z,63.73
2018-08-18T10:32:45.234Z,64.47
2018-08-18T10:33:54.597Z,63.84
2018-08-18T10:35:02.500Z,63.86
2018-08-18T10:36:11.293Z,61.70
2018-08-18T10:37:20.060Z,62.07
2018-08-18T10:38:27.567Z,61.78
2018-08-18T10:39:34.825Z,62.71
2018-08-18T10:40:42.849Z,62.75
2018-08-18T10:41:50.619Z,62.90
2018-08-18T10:42:58.164Z,62.42
2018-08-18T10:44:07.019Z,62.45
2018-08-18T10:45:18.988Z,62.22
2018-08-18T10:46:27.219Z,60.86
2018-08-18T10:47:34.528Z,60.57
2018-08-18T10:48:40.644Z,60.53
2018-08-18T10:51:37.444Z,62.13
2018-08-18T10:52:54.750Z,60.89
2018-08-18T10:54:00.512Z,59.69
2018-08-18T10:55:19.000Z,59.06
2018-08-18T10:56:25.025Z,58.96
2018-08-18T10:59:13.923Z,60.49
2018-08-18T11:00:20.556Z,60.30
2018-08-18T11:01:32.751Z,61.15
2018-08-18T11:02:39.876Z,60.90
2018-08-18T11:03:47.524Z,61.20
2018-08-18T11:04:56.033Z,60.76
2018-08-18T11:06:03.570Z,61.07
2018-08-18T11:07:11.135Z,61.55
2018-08-18T11:08:18.828Z,60.86
2018-08-18T11:09:28.642Z,61.44
2018-08-18T11:10:36.156Z,61.42
2018-08-18T11:11:47.111Z,59.29
2018-08-18T11:12:53.721Z,60.16
2018-08-18T11:14:01.054Z,60.00
2018-08-18T11:15:07.617Z,59.11
2018-08-18T11:16:15.254Z,59.60
2018-08-18T11:17:23.386Z,59.22
2018-08-18T11:18:33.048Z,59.38
2018-08-18T11:19:40.457Z,58.74
2018-08-18T11:20:47.724Z,58.58
2018-08-18T11:21:54.976Z,58.86
2018-08-18T11:23:02.829Z,60.00
2018-08-18T11:24:09.276Z,59.98
2018-08-18T11:25:17.533Z,59.27
2018-08-18T11:26:25.792Z,59.37
2018-08-18T11:27:33.915Z,59.32
2018-08-18T11:28:42.394Z,59.09
2018-08-18T11:29:49.357Z,58.29
2018-08-18T11:30:58.123Z,58.81
2018-08-18T11:32:05.049Z,58.36
2018-08-18T11:33:11.413Z,57.89
2018-08-18T11:34:19.249Z,58.35
2018-08-18T11:35:26.975Z,58.51
2018-08-18T11:36:34.054Z,58.19
2018-08-18T11:37:40.496Z,58.36
2018-08-18T11:38:47.317Z,58.76
2018-08-18T11:39:54.656Z,58.88
2018-08-18T11:41:02.590Z,58.22
2018-08-18T11:42:21.594Z,57.41
2018-08-18T11:43:27.257Z,57.02
2018-08-18T11:44:33.517Z,56.60
2018-08-18T11:45:42.588Z,56.23
2018-08-18T11:46:50.414Z,55.83
2018-08-18T11:47:56.074Z,56.84
2018-08-18T11:49:01.932Z,57.43
2018-08-18T11:50:07.984Z,56.04
2018-08-18T11:51:14.486Z,56.45
2018-08-18T11:52:20.620Z,58.19
2018-08-18T11:53:26.753Z,57.98
2018-08-18T11:54:32.721Z,56.55
2018-08-18T11:55:38.729Z,56.77
2018-08-18T11:56:44.639Z,55.73
2018-08-18T11:57:50.693Z,55.48
2018-08-18T11:58:55.860Z,56.21
2018-08-18T12:00:02.669Z,55.86
2018-08-18T12:01:11.681Z,55.35
2018-08-18T12:02:17.608Z,55.36
2018-08-18T12:03:23.344Z,56.37
2018-08-18T12:04:29.333Z,56.51
2018-08-18T12:05:35.365Z,56.09
2018-08-18T12:06:41.107Z,54.28
2018-08-18T12:07:46.556Z,53.25
2018-08-18T12:08:57.601Z,55.09
2018-08-18T12:10:03.614Z,54.69
2018-08-18T12:11:09.023Z,53.50
2018-08-18T12:12:14.438Z,54.03
2018-08-18T12:13:19.530Z,55.17
2018-08-18T12:14:25.734Z,55.40
2018-08-18T12:15:31.391Z,55.66
2018-08-18T12:16:37.289Z,54.72
2018-08-18T12:17:42.404Z,55.27
2018-08-18T12:18:48.113Z,55.01
2018-08-18T12:19:54.248Z,54.58
2018-08-18T12:21:00.040Z,55.02
2018-08-18T12:22:05.684Z,54.63
2018-08-18T12:23:11.431Z,56.02
2018-08-18T12:24:17.452Z,56.34
2018-08-18T12:25:23.117Z,55.36
2018-08-18T12:26:29.168Z,55.21
2018-08-18T12:27:34.769Z,55.12
2018-08-18T12:28:39.951Z,56.80
2018-08-18T12:29:46.131Z,55.94
2018-08-18T12:30:51.883Z,54.10
2018-08-18T12:31:57.590Z,54.81
2018-08-18T12:33:04.228Z,55.49
2018-08-18T12:34:10.268Z,55.65
2018-08-18T12:35:16.136Z,56.03
2018-08-18T12:36:21.661Z,55.61
2018-08-18T12:37:27.689Z,55.39
2018-08-18T12:38:32.775Z,54.39
2018-08-18T12:39:39.016Z,54.65
2018-08-18T12:40:55.052Z,54.71
2018-08-18T12:42:00.918Z,54.38
2018-08-18T12:43:06.006Z,55.07
2018-08-18T12:44:11.544Z,53.58
2018-08-18T12:45:17.040Z,54.83
2018-08-18T12:46:22.809Z,54.84
2018-08-18T12:47:33.285Z,54.98
2018-08-18T12:48:44.154Z,54.81
2018-08-18T12:49:49.991Z,55.17
2018-08-18T12:50:55.956Z,54.72
2018-08-18T12:52:01.392Z,54.93
2018-08-18T12:53:07.159Z,53.48
2018-08-18T12:54:13.188Z,54.91
2018-08-18T12:55:18.929Z,53.90
2018-08-18T12:56:24.048Z,54.42
2018-08-18T12:57:29.091Z,54.93
2018-08-18T12:58:46.836Z,55.12
2018-08-18T12:59:52.956Z,54.87
2018-08-18T13:00:58.673Z,55.02
2018-08-18T13:02:04.064Z,53.96
2018-08-18T13:03:10.057Z,54.12
2018-08-18T13:04:15.867Z,53.26
2018-08-18T13:05:21.883Z,51.83
2018-08-18T13:06:27.324Z,52.46
2018-08-18T13:07:32.892Z,51.92
2018-08-18T13:08:38.525Z,52.75
2018-08-18T13:09:43.873Z,52.80
2018-08-18T13:10:49.370Z,53.26
2018-08-18T13:11:54.546Z,53.49
2018-08-18T13:13:00.579Z,52.90
2018-08-18T13:14:06.063Z,53.34
2018-08-18T13:15:11.598Z,52.97
2018-08-18T13:16:17.148Z,53.11
2018-08-18T13:17:23.212Z,52.47
2018-08-18T13:18:29.637Z,51.74
2018-08-18T13:19:35.573Z,51.04
2018-08-18T13:20:41.331Z,51.34
2018-08-18T13:21:47.482Z,48.87
2018-08-18T13:22:53.339Z,49.86
2018-08-18T13:23:59.441Z,49.06
2018-08-18T13:25:05.217Z,49.20
2018-08-18T13:26:10.920Z,49.13
2018-08-18T13:27:16.755Z,49.86
2018-08-18T13:28:22.216Z,50.89
2018-08-18T13:29:27.954Z,50.24
2018-08-18T13:30:43.185Z,52.80
2018-08-18T13:31:48.956Z,50.07
2018-08-18T13:32:54.036Z,51.29
2018-08-18T13:33:59.738Z,48.13
2018-08-18T13:35:06.087Z,48.13
2018-08-18T13:36:11.920Z,47.42
2018-08-18T13:37:25.192Z,49.52
2018-08-18T13:38:37.288Z,49.53
2018-08-18T13:39:42.963Z,50.64
2018-08-18T13:40:48.631Z,50.57
2018-08-18T13:41:54.134Z,50.66
2018-08-18T13:42:59.452Z,50.52
2018-08-18T13:44:05.216Z,50.86
2018-08-18T13:45:10.372Z,51.59
2018-08-18T13:46:15.874Z,49.23
2018-08-18T13:47:21.650Z,48.19
2018-08-18T13:48:48.897Z,49.59
2018-08-18T13:49:54.784Z,49.78
2018-08-18T13:51:00.256Z,49.69
2018-08-18T13:52:05.342Z,51.26
2018-08-18T13:53:10.840Z,50.08
2018-08-18T13:54:16.588Z,49.02
2018-08-18T13:55:22.972Z,49.93
2018-08-18T13:56:28.692Z,52.45
2018-08-18T13:57:34.146Z,50.09
2018-08-18T13:58:39.612Z,49.43
2018-08-18T13:59:50.224Z,48.85
2018-08-18T14:00:56.458Z,47.88
2018-08-18T14:02:02.313Z,48.17
2018-08-18T14:03:07.156Z,46.42
2018-08-18T14:04:26.674Z,45.93
2018-08-18T14:05:32.602Z,47.55
2018-08-18T14:06:38.032Z,46.68
2018-08-18T14:07:43.042Z,47.64
2018-08-18T14:08:48.609Z,48.97
2018-08-18T14:09:54.444Z,46.58
2018-08-18T14:11:00.290Z,46.29
2018-08-18T14:12:05.355Z,47.41
2018-08-18T14:13:11.139Z,48.35
2018-08-18T14:14:21.139Z,49.47
2018-08-18T14:15:27.030Z,46.75
2018-08-18T14:16:32.824Z,45.31
2018-08-18T14:17:38.264Z,44.71
2018-08-18T14:18:49.125Z,46.30
2018-08-18T14:19:55.156Z,45.86
2018-08-18T14:21:00.608Z,44.44
2018-08-18T14:22:08.654Z,43.92
2018-08-18T14:23:14.385Z,44.80
2018-08-18T14:24:20.766Z,45.50
2018-08-18T14:25:26.293Z,45.30
2018-08-18T14:26:32.028Z,45.85
2018-08-18T14:27:37.472Z,46.95